Time;durP1;ratioP1;P1;durP2;ratioP2;P2;SDS_P1;SDS_P2;PMS_P1;PMS_P2;Temp;Humidity;BMP_temperature;BMP_pressure;BME280_temperature;BME280_humidity;BME280_pressure;Samples;Min_cycle;Max_cycle;Signal;HPM_P1;HPM_P2
2021/12/09 00:01:07;;;;;;;127.78;38.85;;;7.60;92.10;;;;;;5056440;28;20040;-34
2021/12/09 00:03:36;;;;;;;336.77;55.50;;;7.60;92.10;;;;;;5056094;28;20424;-32
2021/12/09 00:06:04;;;;;;;356.45;53.92;;;7.60;92.10;;;;;;5056448;28;20410;-44
2021/12/09 00:08:30;;;;;;;172.65;42.97;;;7.60;92.10;;;;;;5056204;28;20433;-33
2021/12/09 00:10:59;;;;;;;318.85;52.08;;;7.60;92.10;;;;;;5056285;28;20040;-44
2021/12/09 00:13:27;;;;;;;426.85;66.25;;;7.60;92.10;;;;;;5056141;28;20410;-43
2021/12/09 00:15:58;;;;;;;353.15;57.33;;;7.60;92.10;;;;;;5056174;28;20040;-45
2021/12/09 00:18:25;;;;;;;378.05;54.38;;;7.60;92.10;;;;;;5055892;28;20071;-35
2021/12/09 00:20:52;;;;;;;561.35;68.05;;;7.60;92.20;;;;;;5056070;28;20405;-35
2021/12/09 00:23:17;;;;;;;273.15;53.30;;;7.60;92.20;;;;;;5054658;28;20031;-47
2021/12/09 00:25:43;;;;;;;366.25;59.28;;;7.60;92.20;;;;;;5056197;28;20318;-35
2021/12/09 00:28:09;;;;;;;164.73;40.35;;;7.50;92.20;;;;;;5056026;28;20086;-48
2021/12/09 00:30:35;;;;;;;516.38;70.28;;;7.60;92.20;;;;;;5056041;28;20084;-33
2021/12/09 00:33:03;;;;;;;311.98;51.38;;;7.50;92.20;;;;;;5055905;28;20108;-46
2021/12/09 00:35:40;;;;;;;161.57;43.97;;;7.50;92.20;;;;;;5056037;28;20372;-45
2021/12/09 00:38:08;;;;;;;423.83;59.30;;;7.50;92.30;;;;;;5056108;28;20025;-46
2021/12/09 00:40:34;;;;;;;238.00;43.47;;;7.50;92.30;;;;;;5057051;28;20106;-45
2021/12/09 00:43:01;;;;;;;197.48;42.90;;;7.50;92.30;;;;;;5059559;28;20032;-45
2021/12/09 00:45:27;;;;;;;493.73;68.15;;;7.60;92.30;;;;;;5059825;28;20413;-46
2021/12/09 00:47:53;;;;;;;332.30;50.08;;;7.50;92.30;;;;;;5059311;28;20036;-46
2021/12/09 00:50:20;;;;;;;171.75;39.58;;;7.50;92.30;;;;;;5059158;28;20049;-46
2021/12/09 00:52:47;;;;;;;408.42;51.67;;;7.60;92.40;;;;;;5059282;28;20021;-46
2021/12/09 00:55:14;;;;;;;299.80;49.75;;;7.50;92.30;;;;;;5059702;28;20028;-45
2021/12/09 00:57:40;;;;;;;231.07;43.17;;;7.60;92.30;;;;;;5059343;28;20021;-34
2021/12/09 01:00:13;;;;;;;615.13;73.40;;;7.60;92.30;;;;;;5059175;28;20098;-34
2021/12/09 01:02:38;;;;;;;352.25;49.78;;;7.60;92.40;;;;;;5059350;28;20364;-45
2021/12/09 01:05:06;;;;;;;296.42;43.03;;;7.60;92.30;;;;;;5059676;28;20044;-45
2021/12/09 01:07:32;;;;;;;449.65;60.78;;;7.60;92.30;;;;;;5059353;28;20321;-46
2021/12/09 01:10:07;;;;;;;270.85;45.33;;;7.60;92.30;;;;;;5059548;28;20037;-33
2021/12/09 01:12:33;;;;;;;225.90;40.40;;;7.60;92.30;;;;;;5058850;28;20040;-36
2021/12/09 01:14:59;;;;;;;493.40;60.50;;;7.50;92.30;;;;;;5059307;28;20072;-45
2021/12/09 01:17:25;;;;;;;172.10;39.05;;;7.60;92.30;;;;;;5059277;28;20369;-34
2021/12/09 01:19:52;;;;;;;128.82;33.22;;;7.60;92.30;;;;;;5059194;28;20286;-45
2021/12/09 01:22:19;;;;;;;342.35;50.88;;;7.50;92.30;;;;;;5059126;28;20029;-34
2021/12/09 01:24:45;;;;;;;364.45;54.92;;;7.60;92.40;;;;;;5058962;28;20052;-35
2021/12/09 01:27:11;;;;;;;278.67;42.47;;;7.60;92.30;;;;;;5058819;28;20480;-38
2021/12/09 01:29:40;;;;;;;255.85;38.08;;;7.60;92.40;;;;;;5058688;28;20104;-46
2021/12/09 01:32:08;;;;;;;206.07;39.83;;;7.60;92.40;;;;;;5058602;28;20044;-46
2021/12/09 01:34:36;;;;;;;154.32;37.72;;;7.60;92.30;;;;;;5058729;28;20063;-46
2021/12/09 01:37:03;;;;;;;398.73;54.83;;;7.60;92.30;;;;;;5058818;28;20029;-46
2021/12/09 01:39:30;;;;;;;227.05;41.05;;;7.60;92.30;;;;;;5058831;28;20028;-33
2021/12/09 01:41:57;;;;;;;248.23;42.05;;;7.60;92.30;;;;;;5059042;28;20037;-46
2021/12/09 01:44:23;;;;;;;347.15;51.85;;;7.60;92.20;;;;;;5058515;28;20036;-36
2021/12/09 01:46:49;;;;;;;378.75;49.05;;;7.60;92.10;;;;;;5058252;28;20425;-34
2021/12/09 01:49:16;;;;;;;114.15;32.30;;;7.60;92.10;;;;;;5058084;28;20053;-46
2021/12/09 01:51:43;;;;;;;149.88;34.08;;;7.60;92.10;;;;;;5057120;28;20120;-34
2021/12/09 01:54:09;;;;;;;242.98;44.00;;;7.60;92.20;;;;;;5058548;28;20087;-45
2021/12/09 01:56:35;;;;;;;185.68;37.17;;;7.60;92.10;;;;;;5058489;28;20028;-45
2021/12/09 01:59:04;;;;;;;147.75;34.78;;;7.60;92.20;;;;;;5058129;28;20322;-33
2021/12/09 02:01:31;;;;;;;176.20;32.67;;;7.60;92.20;;;;;;5058080;28;20039;-33
2021/12/09 02:03:58;;;;;;;432.75;53.00;;;7.60;92.20;;;;;;5057717;28;20469;-35
2021/12/09 02:06:25;;;;;;;202.65;36.95;;;7.60;92.10;;;;;;5057903;28;20109;-46
2021/12/09 02:08:52;;;;;;;203.13;38.80;;;7.60;92.10;;;;;;5058065;28;20057;-34
2021/12/09 02:11:18;;;;;;;316.15;42.08;;;7.60;92.10;;;;;;5058074;28;20051;-35
2021/12/09 02:13:45;;;;;;;397.40;53.38;;;7.60;92.10;;;;;;5057875;28;20516;-33
2021/12/09 02:16:11;;;;;;;231.85;37.22;;;7.60;92.10;;;;;;5057866;28;20029;-46
2021/12/09 02:18:37;;;;;;;163.02;33.33;;;7.60;92.10;;;;;;5058072;28;20028;-46
2021/12/09 02:21:08;;;;;;;488.10;57.75;;;7.60;92.20;;;;;;5058272;28;20120;-45
2021/12/09 02:23:34;;;;;;;280.83;39.03;;;7.60;92.10;;;;;;5058057;28;20021;-34
2021/12/09 02:25:59;;;;;;;310.90;43.20;;;7.60;92.20;;;;;;5057520;28;20041;-35
2021/12/09 02:28:26;;;;;;;247.32;33.83;;;7.60;92.20;;;;;;5057612;28;20039;-34
2021/12/09 02:30:52;;;;;;;239.63;35.60;;;7.50;92.10;;;;;;5057998;28;20037;-46
2021/12/09 02:33:18;;;;;;;125.55;29.85;;;7.60;92.20;;;;;;5057445;28;20032;-34
2021/12/09 02:35:44;;;;;;;178.50;33.65;;;7.60;92.20;;;;;;5057837;28;20037;-45
2021/12/09 02:38:09;;;;;;;172.60;31.67;;;7.60;92.20;;;;;;5057796;28;20032;-44
2021/12/09 02:40:36;;;;;;;278.85;38.58;;;7.60;92.20;;;;;;5057590;28;20033;-45
2021/12/09 02:43:07;;;;;;;182.00;32.47;;;7.60;92.20;;;;;;5057618;28;20036;-33
2021/12/09 02:45:33;;;;;;;;;;;7.50;92.20;;;;;;5058094;28;20048;-34
2021/12/09 02:47:59;;;;;;;221.38;31.75;;;7.50;92.00;;;;;;5057248;28;19909;-34
2021/12/09 02:50:24;;;;;;;214.10;34.83;;;7.50;92.30;;;;;;5056897;28;20077;-34
2021/12/09 02:52:50;;;;;;;284.15;42.72;;;7.50;92.30;;;;;;5057135;28;20025;-45
2021/12/09 02:55:16;;;;;;;266.58;34.95;;;7.50;92.30;;;;;;5057395;28;20026;-34
2021/12/09 02:57:42;;;;;;;245.00;34.20;;;7.50;92.30;;;;;;5057304;28;20025;-33
2021/12/09 03:00:10;;;;;;;328.23;40.03;;;7.50;92.30;;;;;;5057416;28;20104;-45
2021/12/09 03:02:37;;;;;;;116.55;31.70;;;7.50;92.20;;;;;;5056910;28;20121;-34
2021/12/09 03:05:04;;;;;;;236.68;35.65;;;7.50;92.30;;;;;;5057035;28;20119;-33
2021/12/09 03:07:35;;;;;;;330.63;40.33;;;7.50;92.20;;;;;;5057029;28;20028;-33
2021/12/09 03:10:19;;;;;;;136.95;30.40;;;7.50;92.20;;;;;;5057308;28;20056;-34
2021/12/09 03:12:45;;;;;;;202.10;33.22;;;7.60;92.10;;;;;;5057031;28;20064;-45
2021/12/09 03:15:11;;;;;;;297.40;38.92;;;7.50;92.20;;;;;;5057240;28;20029;-35
2021/12/09 03:17:38;;;;;;;340.50;41.50;;;7.50;92.20;;;;;;5056771;28;20093;-45
2021/12/09 03:20:06;;;;;;;314.75;39.53;;;7.50;92.20;;;;;;5057043;28;20040;-34
2021/12/09 03:22:31;;;;;;;307.42;37.47;;;7.50;92.10;;;;;;5056838;28;20033;-45
2021/12/09 03:24:57;;;;;;;201.75;32.17;;;7.50;92.10;;;;;;5056774;28;20432;-45
2021/12/09 03:27:23;;;;;;;135.95;28.70;;;7.50;92.20;;;;;;5056725;28;20029;-46
2021/12/09 03:29:49;;;;;;;162.55;30.25;;;7.50;92.20;;;;;;5056333;28;20091;-45
2021/12/09 03:32:17;;;;;;;155.63;31.33;;;7.50;92.20;;;;;;5056323;28;20072;-45
2021/12/09 03:34:44;;;;;;;176.60;29.00;;;7.50;92.20;;;;;;5056520;28;20028;-34
2021/12/09 03:37:13;;;;;;;222.35;29.65;;;7.50;92.20;;;;;;5056406;28;20025;-33
2021/12/09 03:39:41;;;;;;;258.30;33.65;;;7.50;92.20;;;;;;5056424;28;20345;-45
2021/12/09 03:42:10;;;;;;;359.67;41.63;;;7.50;92.10;;;;;;5056307;28;20029;-33
2021/12/09 03:44:37;;;;;;;200.38;31.67;;;7.60;92.10;;;;;;5056383;28;20033;-34
2021/12/09 03:47:07;;;;;;;324.42;39.17;;;7.50;92.10;;;;;;5056304;28;20082;-45
2021/12/09 03:49:33;;;;;;;100.97;25.63;;;7.50;92.10;;;;;;5055915;28;20059;-45
2021/12/09 03:51:58;;;;;;;143.10;28.25;;;7.50;92.10;;;;;;5055953;28;20033;-34
2021/12/09 03:54:25;;;;;;;127.60;23.77;;;7.50;92.10;;;;;;5056270;28;20028;-38
2021/12/09 03:56:52;;;;;;;365.23;39.63;;;7.50;92.10;;;;;;5056114;28;20025;-33
2021/12/09 03:59:18;;;;;;;287.23;34.90;;;7.50;92.10;;;;;;5056314;28;20116;-33
2021/12/09 04:01:45;;;;;;;146.43;24.52;;;7.50;92.10;;;;;;5056297;28;20078;-36
2021/12/09 04:04:12;;;;;;;168.30;27.88;;;7.50;92.10;;;;;;5056331;28;20118;-45
2021/12/09 04:06:38;;;;;;;66.40;20.58;;;7.50;92.20;;;;;;5055935;28;20021;-33
2021/12/09 04:09:10;;;;;;;160.40;27.00;;;7.50;92.20;;;;;;5056445;28;20086;-37
2021/12/09 04:11:36;;;;;;;107.63;23.55;;;7.50;92.10;;;;;;5056194;28;20029;-33
2021/12/09 04:14:04;;;;;;;76.97;24.25;;;7.50;92.20;;;;;;5055921;28;20393;-34
2021/12/09 04:16:30;;;;;;;144.32;26.92;;;7.50;92.20;;;;;;5055289;28;20102;-44
2021/12/09 04:18:55;;;;;;;131.68;26.63;;;7.50;92.20;;;;;;5055750;28;20022;-33
2021/12/09 04:21:21;;;;;;;54.25;21.25;;;7.50;92.10;;;;;;5056031;28;20040;-45
2021/12/09 04:23:47;;;;;;;44.42;19.48;;;7.60;92.10;;;;;;5055685;28;20028;-33
2021/12/09 04:26:13;;;;;;;89.38;23.05;;;7.50;92.10;;;;;;5055786;28;20025;-36
2021/12/09 04:28:39;;;;;;;47.15;18.63;;;7.50;92.00;;;;;;5055395;28;20026;-44
2021/12/09 04:31:05;;;;;;;246.43;32.80;;;7.50;92.00;;;;;;5055651;28;20036;-33
2021/12/09 04:33:32;;;;;;;146.68;26.77;;;7.50;91.90;;;;;;5055618;28;20029;-44
2021/12/09 04:35:58;;;;;;;66.82;22.08;;;7.50;91.90;;;;;;5055511;28;20029;-34
2021/12/09 04:38:24;;;;;;;56.63;22.20;;;7.50;91.90;;;;;;5055586;28;20032;-33
2021/12/09 04:40:50;;;;;;;88.35;25.27;;;7.50;91.90;;;;;;5055979;28;20032;-33
2021/12/09 04:43:15;;;;;;;53.15;21.08;;;7.50;91.90;;;;;;5055540;28;20028;-34
2021/12/09 04:45:41;;;;;;;107.53;25.90;;;7.50;91.90;;;;;;5055958;28;20317;-35
2021/12/09 04:48:07;;;;;;;59.47;22.17;;;7.50;91.90;;;;;;5055623;28;20025;-34
2021/12/09 04:50:35;;;;;;;42.33;19.75;;;7.50;92.00;;;;;;5055300;28;20044;-44
2021/12/09 04:53:01;;;;;;;47.35;20.27;;;7.50;92.00;;;;;;5055593;28;20056;-33
2021/12/09 04:55:28;;;;;;;46.30;19.55;;;7.50;92.00;;;;;;5055307;28;20080;-33
2021/12/09 04:57:53;;;;;;;55.95;22.35;;;7.50;92.00;;;;;;5055696;28;20032;-34
2021/12/09 05:00:23;;;;;;;54.65;22.25;;;7.50;92.20;;;;;;5055650;28;20426;-46
2021/12/09 05:05:48;;;;;;;52.67;21.38;;;7.50;91.90;;;;;;5055003;28;20318;-34
2021/12/09 05:08:17;;;;;;;47.42;21.75;;;7.50;91.90;;;;;;5055396;28;20021;-34
2021/12/09 05:11:48;;;;;;;58.50;22.48;;;7.50;91.90;;;;;;5055542;28;20302;-34
2021/12/09 05:13:41;;;;;;;39.67;21.05;;;7.50;91.90;;;;;;5052222;28;20044;-45
2021/12/09 05:16:08;;;;;;;36.60;18.58;;;7.50;91.90;;;;;;5055066;28;20056;-46
2021/12/09 05:18:36;;;;;;;35.97;17.83;;;7.50;91.90;;;;;;5055142;28;20029;-33
2021/12/09 05:21:03;;;;;;;47.72;21.13;;;7.50;91.90;;;;;;5055553;28;20427;-33
2021/12/09 05:23:29;;;;;;;50.72;21.45;;;7.50;91.90;;;;;;5055314;28;20033;-35
2021/12/09 05:25:55;;;;;;;39.67;18.67;;;7.50;91.90;;;;;;5055703;28;20444;-45
2021/12/09 05:28:30;;;;;;;50.03;22.02;;;7.50;91.90;;;;;;5057575;28;20033;-35
2021/12/09 05:33:41;;;;;;;43.25;19.85;;;7.50;91.80;;;;;;5058933;28;20094;-46
2021/12/09 05:36:08;;;;;;;42.10;19.92;;;7.50;91.90;;;;;;5058685;28;20021;-35
2021/12/09 05:38:33;;;;;;;44.05;19.80;;;7.50;91.90;;;;;;5058272;28;20021;-45
2021/12/09 05:40:59;;;;;;;47.67;20.55;;;7.50;91.90;;;;;;5058838;28;20029;-38
2021/12/09 05:43:26;;;;;;;44.58;20.50;;;7.50;91.90;;;;;;5058544;28;20094;-46
2021/12/09 05:45:52;;;;;;;47.63;21.92;;;7.50;91.90;;;;;;5058475;28;20040;-44
2021/12/09 05:48:18;;;;;;;48.45;22.20;;;7.50;91.90;;;;;;5058269;28;20029;-45
2021/12/09 05:50:45;;;;;;;47.97;22.02;;;7.60;91.90;;;;;;5057937;28;20055;-45
2021/12/09 05:53:11;;;;;;;48.95;22.52;;;7.60;91.80;;;;;;5058033;28;20025;-45
2021/12/09 05:55:43;;;;;;;47.13;23.17;;;7.60;91.80;;;;;;5058396;28;20114;-45
2021/12/09 05:58:13;;;;;;;49.85;23.52;;;7.60;91.80;;;;;;5058172;28;20021;-35
2021/12/09 06:00:39;;;;;;;39.60;19.90;;;7.60;91.80;;;;;;5058199;28;20036;-34
2021/12/09 06:03:05;;;;;;;50.22;21.60;;;7.60;91.80;;;;;;5058078;28;20405;-45
2021/12/09 06:05:32;;;;;;;41.22;21.40;;;7.60;91.80;;;;;;5058151;28;20120;-46
2021/12/09 06:07:58;;;;;;;44.72;21.92;;;7.60;91.70;;;;;;5058081;28;20029;-45
2021/12/09 06:10:23;;;;;;;46.70;23.58;;;7.60;91.70;;;;;;5058059;28;20329;-35
2021/12/09 06:12:49;;;;;;;41.53;20.10;;;7.70;91.80;;;;;;5057528;28;20029;-36
2021/12/09 06:15:15;;;;;;;47.85;21.13;;;7.70;91.70;;;;;;5057885;28;20295;-34
2021/12/09 06:17:40;;;;;;;52.20;22.60;;;7.70;91.70;;;;;;5057449;28;20056;-45
2021/12/09 06:20:07;;;;;;;50.17;22.95;;;7.60;91.60;;;;;;5057620;28;20029;-45
2021/12/09 06:22:33;;;;;;;43.75;20.52;;;7.70;91.70;;;;;;5057526;28;20321;-34
2021/12/09 06:24:58;;;;;;;39.88;20.70;;;7.70;91.70;;;;;;5057567;28;20052;-33
2021/12/09 06:27:24;;;;;;;39.42;18.02;;;7.70;91.70;;;;;;5057611;28;20025;-37
2021/12/09 06:29:50;;;;;;;42.70;20.63;;;7.70;91.70;;;;;;5057634;28;20086;-45
2021/12/09 06:32:16;;;;;;;39.65;20.67;;;7.70;91.60;;;;;;5057778;28;20423;-36
2021/12/09 06:34:41;;;;;;;48.85;25.60;;;7.70;91.60;;;;;;5057423;28;20325;-45
2021/12/09 06:37:07;;;;;;;69.43;36.40;;;7.70;91.60;;;;;;5057141;28;20022;-35
2021/12/09 06:39:33;;;;;;;65.93;32.10;;;7.70;91.60;;;;;;5056783;28;20037;-34
2021/12/09 06:41:59;;;;;;;59.05;27.85;;;7.70;91.60;;;;;;5057313;28;20032;-33
2021/12/09 06:44:25;;;;;;;50.88;26.75;;;7.70;91.70;;;;;;5057224;28;20037;-34
2021/12/09 06:46:51;;;;;;;56.33;30.38;;;7.70;91.70;;;;;;5055999;28;20025;-32
2021/12/09 06:49:16;;;;;;;50.13;24.45;;;7.80;91.60;;;;;;5056978;28;20049;-45
2021/12/09 06:51:42;;;;;;;48.05;23.48;;;7.80;91.60;;;;;;5056728;28;20025;-32
2021/12/09 06:54:07;;;;;;;52.15;24.30;;;7.80;91.50;;;;;;5056783;28;20025;-44
2021/12/09 06:56:35;;;;;;;59.03;23.80;;;7.80;91.40;;;;;;5056792;28;20021;-36
2021/12/09 06:59:01;;;;;;;43.28;21.10;;;7.80;91.40;;;;;;5056748;28;20048;-33
2021/12/09 07:01:27;;;;;;;46.80;22.45;;;7.80;91.40;;;;;;5056904;28;20092;-33
2021/12/09 07:03:53;;;;;;;49.72;21.27;;;7.80;91.40;;;;;;5056710;28;20137;-44
2021/12/09 07:06:20;;;;;;;43.47;21.48;;;7.80;91.40;;;;;;5056763;28;20021;-44
2021/12/09 07:08:48;;;;;;;51.35;23.05;;;7.80;91.40;;;;;;5056783;28;20112;-44
2021/12/09 07:11:16;;;;;;;42.50;20.17;;;7.80;91.40;;;;;;5056804;28;20317;-44
2021/12/09 07:13:42;;;;;;;42.10;21.05;;;7.80;91.40;;;;;;5056462;28;20024;-45
2021/12/09 07:16:08;;;;;;;42.45;20.25;;;7.80;91.40;;;;;;5056779;28;20032;-45
2021/12/09 07:18:34;;;;;;;36.70;19.30;;;7.80;91.40;;;;;;5056345;28;20025;-33
2021/12/09 07:20:59;;;;;;;34.90;18.48;;;7.80;91.40;;;;;;5056949;28;20036;-32
2021/12/09 07:23:25;;;;;;;37.47;19.02;;;7.90;91.40;;;;;;5056120;28;20040;-37
2021/12/09 07:25:51;;;;;;;40.85;19.77;;;7.90;91.30;;;;;;5056593;28;20033;-36
2021/12/09 07:28:17;;;;;;;39.83;20.38;;;7.90;91.40;;;;;;5056373;28;20043;-44
2021/12/09 07:30:43;;;;;;;39.65;20.63;;;7.90;91.40;;;;;;5056639;28;20036;-32
2021/12/09 07:33:08;;;;;;;40.05;20.25;;;7.90;91.30;;;;;;5056277;28;20079;-33
2021/12/09 07:35:35;;;;;;;45.17;20.83;;;7.90;91.20;;;;;;5056417;28;20025;-44
2021/12/09 07:38:03;;;;;;;47.92;21.73;;;7.90;91.20;;;;;;5056658;28;20036;-44
2021/12/09 07:40:30;;;;;;;46.05;20.67;;;7.90;91.30;;;;;;5056471;28;20364;-42
2021/12/09 07:42:56;;;;;;;41.70;21.25;;;7.90;91.20;;;;;;5056127;28;20448;-45
2021/12/09 07:45:22;;;;;;;43.38;20.48;;;7.90;91.20;;;;;;5056398;28;20035;-32
2021/12/09 07:47:48;;;;;;;43.47;20.15;;;7.90;91.20;;;;;;5056040;28;20048;-33
2021/12/09 07:50:20;;;;;;;44.88;20.60;;;7.90;91.20;;;;;;5054984;28;20057;-45
2021/12/09 07:52:48;;;;;;;41.33;20.85;;;7.90;91.10;;;;;;5055715;28;20024;-32
2021/12/09 07:55:16;;;;;;;36.40;19.10;;;7.90;91.20;;;;;;5054467;28;20029;-35
2021/12/09 07:57:41;;;;;;;47.20;22.40;;;7.90;91.20;;;;;;5053451;28;20110;-45
2021/12/09 08:00:20;;;;;;;52.63;23.50;;;8.00;91.20;;;;;;5054865;28;20061;-44
2021/12/09 08:02:48;;;;;;;50.83;21.50;;;7.90;91.00;;;;;;5054863;28;20021;-44
2021/12/09 08:05:15;;;;;;;46.00;21.98;;;7.90;91.30;;;;;;5054917;28;20056;-35
2021/12/09 08:07:41;;;;;;;43.30;21.23;;;8.00;91.20;;;;;;5053846;28;20040;-38
2021/12/09 08:10:10;;;;;;;47.65;21.50;;;7.90;91.20;;;;;;5055037;28;20115;-33
2021/12/09 08:12:36;;;;;;;44.95;21.30;;;8.00;91.20;;;;;;5054875;28;20025;-45
2021/12/09 08:15:03;;;;;;;56.95;22.83;;;8.00;91.20;;;;;;5055171;28;20654;-34
2021/12/09 08:17:46;;;;;;;40.97;21.02;;;7.90;91.10;;;;;;5054546;28;20107;-45
2021/12/09 08:20:16;;;;;;;46.33;21.10;;;8.00;91.10;;;;;;5055601;28;20334;-34
2021/12/09 08:22:44;;;;;;;38.70;19.50;;;8.00;91.10;;;;;;5054872;28;20504;-44
2021/12/09 08:25:13;;;;;;;40.97;20.70;;;7.90;91.10;;;;;;5055248;28;20128;-33
2021/12/09 08:27:45;;;;;;;54.15;24.90;;;7.90;91.10;;;;;;5052390;28;20112;-34
2021/12/09 08:30:13;;;;;;;43.10;21.52;;;7.90;91.10;;;;;;5052827;28;20041;-33
2021/12/09 08:32:39;;;;;;;46.38;22.25;;;8.00;91.10;;;;;;5055293;28;20314;-45
2021/12/09 08:35:05;;;;;;;40.25;19.38;;;8.00;91.10;;;;;;5055045;28;20045;-34
2021/12/09 08:37:32;;;;;;;40.60;20.70;;;8.00;91.20;;;;;;5054783;28;20035;-32
2021/12/09 08:39:58;;;;;;;45.22;20.90;;;8.00;91.20;;;;;;5055037;28;20068;-44
2021/12/09 08:42:24;;;;;;;48.70;23.40;;;8.00;91.10;;;;;;5054984;28;20359;-33
2021/12/09 08:44:51;;;;;;;73.53;26.52;;;8.00;91.10;;;;;;5054897;28;20044;-44
2021/12/09 08:47:17;;;;;;;45.60;22.38;;;8.00;91.10;;;;;;5054696;28;20033;-32
2021/12/09 08:49:45;;;;;;;49.85;23.02;;;8.00;91.10;;;;;;5054593;28;20064;-35
2021/12/09 08:52:11;;;;;;;42.35;20.25;;;8.00;91.10;;;;;;5049544;28;20045;-44
2021/12/09 08:54:37;;;;;;;61.85;24.10;;;8.00;91.10;;;;;;5046236;28;20325;-32
2021/12/09 08:57:04;;;;;;;35.28;17.88;;;8.00;91.10;;;;;;5049453;28;20041;-32
2021/12/09 08:59:30;;;;;;;43.55;20.92;;;8.00;91.10;;;;;;5054546;28;20091;-34
2021/12/09 09:01:56;;;;;;;37.30;20.75;;;8.00;91.10;;;;;;5056580;28;20112;-44
2021/12/09 09:04:22;;;;;;;59.00;22.02;;;8.00;91.10;;;;;;5058325;28;20037;-44
2021/12/09 09:06:58;;;;;;;58.05;22.40;;;8.00;91.00;;;;;;5058294;28;20768;-32
2021/12/09 09:09:27;;;;;;;42.38;20.33;;;8.00;91.00;;;;;;5058408;28;20029;-32
2021/12/09 09:11:54;;;;;;;60.92;19.55;;;8.00;91.00;;;;;;5058508;28;20033;-32
2021/12/09 09:14:20;;;;;;;48.85;18.63;;;8.00;91.00;;;;;;5058195;28;20112;-33
2021/12/09 09:16:46;;;;;;;42.58;19.92;;;8.00;90.90;;;;;;5058605;28;20049;-44
2021/12/09 09:19:13;;;;;;;35.42;17.77;;;8.00;91.00;;;;;;5058217;28;20401;-44
2021/12/09 09:21:40;;;;;;;37.55;16.27;;;8.00;91.00;;;;;;5058587;28;20043;-44
2021/12/09 09:24:05;;;;;;;86.05;20.58;;;8.00;91.00;;;;;;5058446;28;20033;-34
2021/12/09 09:26:31;;;;;;;36.97;16.88;;;8.00;91.00;;;;;;5058132;28;20303;-45
2021/12/09 09:28:58;;;;;;;42.00;18.42;;;8.00;91.00;;;;;;5057961;28;20391;-32
2021/12/09 09:31:28;;;;;;;41.95;17.92;;;8.00;91.00;;;;;;5058659;28;20028;-44
2021/12/09 09:33:54;;;;;;;47.28;18.42;;;8.00;90.90;;;;;;5058031;28;20060;-32
2021/12/09 09:36:20;;;;;;;30.35;16.02;;;8.00;91.00;;;;;;5058426;28;20029;-45
2021/12/09 09:38:46;;;;;;;33.45;17.15;;;8.00;91.00;;;;;;5058109;28;20028;-44
2021/12/09 09:41:16;;;;;;;36.17;17.52;;;8.00;91.00;;;;;;5058082;28;20139;-45
2021/12/09 09:46:19;;;;;;;39.35;17.08;;;8.00;90.90;;;;;;5058593;28;20037;-33
2021/12/09 09:48:46;;;;;;;35.80;17.67;;;8.00;90.90;;;;;;5057749;28;20384;-36
2021/12/09 09:51:12;;;;;;;50.92;18.45;;;8.00;90.90;;;;;;5057917;28;20064;-44
2021/12/09 09:53:41;;;;;;;102.78;21.08;;;8.00;90.90;;;;;;5057522;28;20387;-37
2021/12/09 09:56:13;;;;;;;47.65;18.48;;;8.00;90.90;;;;;;5057915;28;20047;-43
2021/12/09 09:58:43;;;;;;;74.70;19.52;;;8.00;90.90;;;;;;5056312;28;20075;-33
2021/12/09 10:01:09;;;;;;;91.63;22.10;;;8.00;90.90;;;;;;5058013;28;20037;-44
2021/12/09 10:03:42;;;;;;;80.97;19.63;;;7.90;90.90;;;;;;5056844;28;20461;-44
2021/12/09 10:06:09;;;;;;;66.47;19.77;;;7.90;91.00;;;;;;5058266;28;20052;-44
2021/12/09 10:08:35;;;;;;;63.78;19.20;;;7.90;91.00;;;;;;5057354;28;20032;-44
2021/12/09 10:11:02;;;;;;;42.80;16.92;;;7.90;91.10;;;;;;5058359;28;20036;-44
2021/12/09 10:13:33;;;;;;;124.38;24.70;;;7.90;91.10;;;;;;5056800;28;20036;-32
2021/12/09 10:16:00;;;;;;;49.47;18.33;;;7.90;91.10;;;;;;5057905;28;20075;-33
2021/12/09 10:18:45;;;;;;;38.70;16.67;;;7.90;91.20;;;;;;5057373;28;20104;-33
2021/12/09 10:21:18;;;;;;;133.10;25.70;;;7.90;91.20;;;;;;5057511;28;20048;-44
2021/12/09 10:23:46;;;;;;;56.45;16.92;;;7.90;91.20;;;;;;5057005;28;20024;-34
2021/12/09 10:26:18;;;;;;;139.13;23.05;;;7.90;91.20;;;;;;5057213;28;20083;-44
2021/12/09 10:29:03;;;;;;;58.38;20.83;;;7.80;91.20;;;;;;5056631;28;20113;-33
2021/12/09 10:31:53;;;;;;;146.43;26.83;;;7.90;91.20;;;;;;5056797;28;20060;-44
2021/12/09 10:37:05;;;;;;;93.70;21.00;;;7.90;91.30;;;;;;5057583;28;20155;-34
2021/12/09 10:39:35;;;;;;;54.33;19.38;;;7.90;91.30;;;;;;5057269;28;20101;-34
2021/12/09 10:42:40;;;;;;;56.72;18.55;;;7.90;91.40;;;;;;5057689;28;20404;-44
2021/12/09 10:45:10;;;;;;;178.55;26.85;;;7.90;91.20;;;;;;5057208;28;20275;-32
2021/12/09 10:51:25;;;;;;;71.95;20.10;;;7.90;91.30;;;;;;5056612;28;20067;-44
2021/12/09 10:56:22;;;;;;;52.33;18.35;;;7.80;91.40;;;;;;5057266;28;20086;-33
2021/12/09 10:58:48;;;;;;;111.80;22.23;;;7.90;91.40;;;;;;5056618;28;20033;-44
2021/12/09 11:01:17;;;;;;;79.00;18.58;;;7.90;91.40;;;;;;5056688;28;20070;-36
2021/12/09 11:03:53;;;;;;;44.58;18.30;;;7.90;91.50;;;;;;5056580;28;20383;-47
2021/12/09 11:06:29;;;;;;;89.10;20.55;;;7.90;91.70;;;;;;5056981;28;20078;-33
2021/12/09 11:08:57;;;;;;;83.07;20.85;;;7.90;91.40;;;;;;5055970;28;20338;-33
2021/12/09 11:11:35;;;;;;;114.15;25.88;;;7.90;91.50;;;;;;5056604;28;20112;-34
2021/12/09 11:14:03;;;;;;;239.13;28.75;;;8.00;91.40;;;;;;5056344;28;20367;-32
2021/12/09 11:16:36;;;;;;;182.25;23.05;;;8.00;91.30;;;;;;5056276;28;20029;-33
2021/12/09 11:22:05;;;;;;;97.13;15.80;;;7.90;91.10;;;;;;5056506;28;20067;-44
2021/12/09 11:24:39;;;;;;;111.13;18.40;;;7.90;91.20;;;;;;5056140;28;20337;-33
2021/12/09 11:27:08;;;;;;;129.05;19.92;;;7.90;91.20;;;;;;5056172;28;20037;-44
2021/12/09 11:29:36;;;;;;;116.85;20.10;;;7.90;91.20;;;;;;5056262;28;20298;-32
2021/12/09 11:34:46;;;;;;;56.85;13.95;;;7.80;91.20;;;;;;5055879;28;20114;-44
2021/12/09 11:39:53;;;;;;;114.18;17.08;;;7.80;91.30;;;;;;5055524;28;20068;-32
2021/12/09 11:42:27;;;;;;;30.13;12.25;;;7.80;91.10;;;;;;5055712;28;20061;-32
2021/12/09 11:44:53;;;;;;;50.53;13.38;;;7.80;91.10;;;;;;5055883;28;20095;-44
2021/12/09 11:47:19;;;;;;;82.57;15.38;;;7.80;91.10;;;;;;5055923;28;20332;-32
2021/12/09 11:49:46;;;;;;;92.93;16.42;;;7.70;91.00;;;;;;5055086;28;20132;-44
2021/12/09 11:52:14;;;;;;;97.32;16.17;;;7.70;91.00;;;;;;5055668;28;20111;-33
2021/12/09 11:54:50;;;;;;;28.50;13.18;;;7.70;91.00;;;;;;5055684;28;20053;-33
2021/12/09 12:12:44;;;;;;;63.58;17.08;;;7.50;91.20;;;;;;5055554;28;19916;-32
2021/12/09 12:21:23;;;;;;;28.05;12.00;;;7.50;91.50;;;;;;5055662;28;20067;-44
2021/12/09 12:27:16;;;;;;;41.83;12.10;;;7.50;91.60;;;;;;5055013;28;20448;-44
2021/12/09 12:33:02;;;;;;;53.60;13.80;;;7.60;91.70;;;;;;5055114;28;20040;-44
2021/12/09 12:41:12;;;;;;;45.45;13.23;;;7.60;91.50;;;;;;5059452;28;20048;-44
2021/12/09 12:43:54;;;;;;;44.08;14.70;;;7.60;91.60;;;;;;5058855;28;20025;-44
2021/12/09 12:51:55;;;;;;;49.60;12.93;;;7.70;91.70;;;;;;5059339;28;20095;-33
2021/12/09 12:54:31;;;;;;;53.90;13.93;;;7.60;91.50;;;;;;5059190;28;20386;-32
2021/12/09 12:57:01;;;;;;;66.10;15.15;;;7.70;91.60;;;;;;5059508;28;20029;-44
2021/12/09 12:59:33;;;;;;;54.40;13.97;;;7.70;91.50;;;;;;5058719;28;20083;-33
2021/12/09 13:02:28;;;;;;;61.13;13.40;;;7.70;91.50;;;;;;5058838;28;20052;-32
2021/12/09 13:10:22;;;;;;;225.13;24.42;;;7.70;91.40;;;;;;5058685;28;20128;-33
2021/12/09 13:13:29;;;;;;;21.85;10.90;;;7.70;91.20;;;;;;5058768;28;20110;-32
2021/12/09 13:21:43;;;;;;;246.52;23.70;;;7.60;91.30;;;;;;5059073;28;20100;-32
2021/12/09 13:29:56;;;;;;;33.05;10.95;;;7.60;91.30;;;;;;5058228;28;20041;-32
2021/12/09 13:32:57;;;;;;;89.03;13.18;;;7.60;91.40;;;;;;5058209;28;20037;-32
2021/12/09 13:45:49;;;;;;;92.05;15.57;;;7.60;91.50;;;;;;5058044;28;20087;-32
2021/12/09 13:49:10;;;;;;;45.28;12.50;;;7.60;91.50;;;;;;5055890;28;20325;-32
2021/12/09 13:54:23;;;;;;;98.22;20.13;;;7.60;91.60;;;;;;5057590;28;20112;-44
2021/12/09 13:56:53;;;;;;;99.32;18.15;;;7.60;91.60;;;;;;5057884;28;20421;-33
2021/12/09 13:59:21;;;;;;;107.85;18.38;;;7.60;91.60;;;;;;5057301;28;20041;-44
2021/12/09 14:01:48;;;;;;;74.60;14.93;;;7.60;91.50;;;;;;5057648;28;20059;-32
2021/12/09 14:04:19;;;;;;;88.20;16.08;;;7.60;91.50;;;;;;5057288;28;20057;-44
2021/12/09 14:07:02;;;;;;;92.40;18.92;;;7.60;91.50;;;;;;5057239;28;20029;-44
2021/12/09 14:09:29;;;;;;;35.63;12.60;;;7.60;91.50;;;;;;5056993;28;20255;-33
2021/12/09 14:11:55;;;;;;;61.40;14.02;;;7.70;91.50;;;;;;5057392;28;20028;-44
2021/12/09 14:14:27;;;;;;;143.07;17.88;;;7.70;91.50;;;;;;5057094;28;20048;-34